createdAt,value
2022-12-22T00:00:42.088Z,89.80
2022-12-22T00:03:32.381Z,95.80
2022-12-22T00:06:20.547Z,87.63
2022-12-22T00:09:07.111Z,89.43
2022-12-22T00:11:53.953Z,84.57
2022-12-22T00:14:40.343Z,91.87
2022-12-22T00:17:39.459Z,90.67
2022-12-22T00:20:32.367Z,100.80
2022-12-22T00:23:20.513Z,90.80
2022-12-22T00:26:07.649Z,102.73
2022-12-22T00:28:55.356Z,96.00
2022-12-22T00:31:42.185Z,95.97
2022-12-22T00:34:33.303Z,101.37
2022-12-22T00:37:19.815Z,92.63
2022-12-22T00:40:08.278Z,94.40
2022-12-22T00:42:54.676Z,91.57
2022-12-22T00:45:41.193Z,97.60
2022-12-22T00:48:36.772Z,103.73
2022-12-22T00:51:23.368Z,100.43
2022-12-22T00:54:10.498Z,92.37
2022-12-22T00:56:58.532Z,99.57
2022-12-22T00:59:46.543Z,96.50
2022-12-22T01:02:33.636Z,97.50
2022-12-22T01:05:19.862Z,86.80
2022-12-22T01:08:06.385Z,89.87
2022-12-22T01:10:52.701Z,89.23
2022-12-22T01:13:41.054Z,92.43
2022-12-22T01:16:29.966Z,98.73
2022-12-22T01:19:16.510Z,92.70
2022-12-22T01:22:02.787Z,95.83
2022-12-22T01:24:49.606Z,86.73
2022-12-22T01:27:36.458Z,87.37
2022-12-22T01:30:25.447Z,86.70
2022-12-22T01:33:11.813Z,86.30
2022-12-22T01:35:58.035Z,87.27
2022-12-22T01:38:44.192Z,84.00
2022-12-22T01:41:34.538Z,84.60
2022-12-22T01:44:21.068Z,83.60
2022-12-22T01:47:09.108Z,93.30
2022-12-22T01:49:58.996Z,94.07
2022-12-22T01:52:50.409Z,98.43
2022-12-22T01:55:40.348Z,100.90
2022-12-22T01:58:33.994Z,95.80
2022-12-22T02:01:20.535Z,95.17
2022-12-22T02:04:08.536Z,102.63
2022-12-22T02:07:00.502Z,92.33
2022-12-22T02:09:55.236Z,84.23
2022-12-22T02:12:48.704Z,90.97
2022-12-22T02:15:42.611Z,81.20
2022-12-22T02:18:35.528Z,87.13
2022-12-22T02:21:28.367Z,87.50
2022-12-22T02:24:35.995Z,91.30
2022-12-22T02:27:25.474Z,99.47
2022-12-22T02:30:14.870Z,92.17
2022-12-22T02:33:09.171Z,89.70
2022-12-22T02:36:04.435Z,91.30
2022-12-22T02:39:04.398Z,93.77
2022-12-22T02:41:59.935Z,95.57
2022-12-22T02:45:01.174Z,90.77
2022-12-22T02:47:53.613Z,93.47
2022-12-22T02:50:46.154Z,85.20
2022-12-22T02:53:34.494Z,97.73
2022-12-22T02:56:24.559Z,103.47
2022-12-22T02:59:10.980Z,97.87
2022-12-22T03:02:02.077Z,98.77
2022-12-22T03:04:48.536Z,98.47
2022-12-22T03:07:35.108Z,91.93
2022-12-22T03:10:21.300Z,106.53
2022-12-22T03:13:07.693Z,95.50
2022-12-22T03:15:54.198Z,97.40
2022-12-22T03:18:42.156Z,110.00
2022-12-22T03:21:30.133Z,99.50
2022-12-22T03:24:16.594Z,108.87
2022-12-22T03:26:45.748Z,99.93
2022-12-22T03:29:14.847Z,95.60
2022-12-22T03:31:44.075Z,109.50
2022-12-22T03:34:14.587Z,110.33
2022-12-22T03:36:43.707Z,100.87
2022-12-22T03:39:12.660Z,112.60
2022-12-22T03:41:59.174Z,113.83
2022-12-22T03:44:45.484Z,106.83
2022-12-22T03:47:15.134Z,107.37
2022-12-22T03:49:45.647Z,106.23
2022-12-22T03:52:14.624Z,108.57
2022-12-22T03:54:43.749Z,118.33
2022-12-22T03:57:12.842Z,119.43
2022-12-22T03:59:41.844Z,112.87
2022-12-22T04:02:10.986Z,115.97
2022-12-22T04:04:39.977Z,121.47
2022-12-22T04:07:10.503Z,109.07
2022-12-22T04:09:59.972Z,114.00
2022-12-22T04:12:46.260Z,112.00
2022-12-22T04:15:15.284Z,117.47
2022-12-22T04:17:44.299Z,112.50
2022-12-22T04:20:13.829Z,114.37
2022-12-22T04:22:44.252Z,110.23
2022-12-22T04:25:13.880Z,112.13
2022-12-22T04:27:43.011Z,106.00
2022-12-22T04:30:13.228Z,109.60
2022-12-22T04:32:42.523Z,109.83
2022-12-22T04:35:11.956Z,108.80
2022-12-22T04:37:41.014Z,119.40
2022-12-22T04:40:12.034Z,114.47
2022-12-22T04:42:41.048Z,112.73
2022-12-22T04:45:10.962Z,95.53
2022-12-22T04:47:40.226Z,99.53
2022-12-22T04:50:10.121Z,110.17
2022-12-22T04:52:39.497Z,101.93
2022-12-22T04:55:10.719Z,106.10
2022-12-22T04:57:40.992Z,99.47
2022-12-22T05:00:12.160Z,104.40
2022-12-22T05:02:41.385Z,106.17
2022-12-22T05:05:11.128Z,93.93
2022-12-22T05:07:40.132Z,105.60
2022-12-22T05:10:12.251Z,118.60
2022-12-22T05:12:56.551Z,123.60
2022-12-22T05:15:26.491Z,115.17
2022-12-22T05:17:55.793Z,123.00
2022-12-22T05:20:25.408Z,123.50
2022-12-22T05:22:54.992Z,124.23
2022-12-22T05:25:28.520Z,137.33
2022-12-22T05:28:00.491Z,127.23
2022-12-22T05:30:29.584Z,140.77
2022-12-22T05:32:58.691Z,143.50
2022-12-22T05:35:27.843Z,147.83
2022-12-22T05:37:56.831Z,131.70
2022-12-22T05:40:27.546Z,138.53
2022-12-22T05:42:56.608Z,147.73
2022-12-22T05:45:25.821Z,143.17
2022-12-22T05:47:54.913Z,143.47
2022-12-22T05:50:26.178Z,142.97
2022-12-22T05:52:56.287Z,155.40
2022-12-22T05:55:26.958Z,137.43
2022-12-22T05:57:56.622Z,130.13
2022-12-22T06:00:25.842Z,122.50
2022-12-22T06:02:55.000Z,132.13
2022-12-22T06:05:24.668Z,122.40
2022-12-22T06:07:53.726Z,128.57
2022-12-22T06:10:23.184Z,127.77
2022-12-22T06:12:53.750Z,119.83
2022-12-22T06:15:22.826Z,117.87
2022-12-22T06:17:51.941Z,112.63
2022-12-22T06:20:21.025Z,116.10
2022-12-22T06:22:50.040Z,113.80
2022-12-22T06:25:19.233Z,115.53
2022-12-22T06:27:48.894Z,118.17
2022-12-22T06:30:29.204Z,115.80
2022-12-22T06:33:02.131Z,118.07
2022-12-22T06:35:31.180Z,111.20
2022-12-22T06:38:00.224Z,102.90
2022-12-22T06:40:29.315Z,110.60
2022-12-22T06:43:10.096Z,98.43
2022-12-22T06:45:44.510Z,105.30
2022-12-22T06:48:14.892Z,109.40
2022-12-22T06:50:44.009Z,89.87
2022-12-22T06:53:13.522Z,95.97
2022-12-22T06:55:42.793Z,101.20
2022-12-22T06:58:11.817Z,105.00
2022-12-22T07:00:43.285Z,101.47
2022-12-22T07:03:12.512Z,104.33
2022-12-22T07:05:41.634Z,107.97
2022-12-22T07:08:10.727Z,103.07
2022-12-22T07:10:57.049Z,95.60
2022-12-22T07:13:27.716Z,94.07
2022-12-22T07:16:01.053Z,107.70
2022-12-22T07:18:32.435Z,107.70
2022-12-22T07:21:02.806Z,96.90
2022-12-22T07:23:32.240Z,93.60
2022-12-22T07:26:01.734Z,87.23
2022-12-22T07:28:30.745Z,92.10
2022-12-22T07:31:01.212Z,95.10
2022-12-22T07:33:30.701Z,82.23
2022-12-22T07:36:05.760Z,84.17
2022-12-22T07:38:36.474Z,98.23
2022-12-22T07:41:27.139Z,88.80
2022-12-22T07:43:56.160Z,95.03
2022-12-22T07:46:28.283Z,92.60
2022-12-22T07:49:14.801Z,92.00
2022-12-22T07:51:44.853Z,76.53
2022-12-22T07:54:15.591Z,90.53
2022-12-22T07:56:45.706Z,109.77
2022-12-22T07:59:15.429Z,107.33
2022-12-22T08:01:46.233Z,96.73
2022-12-22T08:04:16.340Z,93.77
2022-12-22T08:06:46.774Z,102.27
2022-12-22T08:09:18.208Z,102.57
2022-12-22T08:11:49.143Z,112.67
2022-12-22T08:14:18.203Z,95.03
2022-12-22T08:16:48.776Z,91.77
2022-12-22T08:19:17.996Z,91.67
2022-12-22T08:21:52.392Z,89.80
2022-12-22T08:24:21.976Z,87.13
2022-12-22T08:26:54.626Z,90.23
2022-12-22T08:29:26.710Z,83.87
2022-12-22T08:31:58.083Z,87.10
2022-12-22T08:34:27.464Z,85.60
2022-12-22T08:37:02.054Z,97.20
2022-12-22T08:39:34.448Z,96.97
2022-12-22T08:42:05.204Z,88.60
2022-12-22T08:44:34.384Z,86.93
2022-12-22T08:47:05.094Z,93.83
2022-12-22T08:49:37.289Z,101.77
2022-12-22T08:52:06.786Z,88.33
2022-12-22T08:54:35.975Z,97.13
2022-12-22T08:57:05.093Z,94.10
2022-12-22T08:59:34.293Z,91.50
2022-12-22T09:02:05.768Z,89.80
2022-12-22T09:04:37.810Z,91.67
2022-12-22T09:07:07.227Z,88.93
2022-12-22T09:09:36.990Z,88.43
2022-12-22T09:12:06.687Z,90.93
2022-12-22T09:14:35.917Z,83.60
2022-12-22T09:17:06.334Z,87.97
2022-12-22T09:19:35.376Z,93.00
2022-12-22T09:22:04.513Z,86.93
2022-12-22T09:24:33.584Z,93.50
2022-12-22T09:27:03.560Z,85.90
2022-12-22T09:29:32.996Z,89.27
2022-12-22T09:32:02.090Z,87.53
2022-12-22T09:34:32.925Z,90.83
2022-12-22T09:37:01.880Z,80.53
2022-12-22T09:39:31.092Z,86.67
2022-12-22T09:42:00.674Z,84.40
2022-12-22T09:44:33.920Z,85.23
2022-12-22T09:47:05.103Z,81.67
2022-12-22T09:49:35.578Z,89.17
2022-12-22T09:52:06.283Z,80.47
2022-12-22T09:54:35.390Z,81.60
2022-12-22T09:57:04.573Z,82.80
2022-12-22T09:59:33.582Z,81.20
2022-12-22T10:02:16.467Z,79.37
2022-12-22T10:05:01.639Z,81.47
2022-12-22T10:07:34.499Z,81.43
2022-12-22T10:10:08.566Z,81.23
2022-12-22T10:12:37.719Z,83.47
2022-12-22T10:15:13.286Z,89.23
2022-12-22T10:17:45.989Z,82.33
2022-12-22T10:20:27.405Z,88.57
2022-12-22T10:23:00.004Z,70.93
2022-12-22T10:26:00.060Z,89.60
2022-12-22T10:28:26.086Z,90.30
2022-12-22T10:31:16.676Z,86.33
2022-12-22T10:33:47.898Z,84.07
2022-12-22T10:36:23.493Z,86.43
2022-12-22T10:39:05.372Z,87.93
2022-12-22T10:41:38.108Z,82.47
2022-12-22T10:44:10.147Z,79.47
2022-12-22T10:46:42.355Z,79.40
2022-12-22T10:49:16.587Z,78.97
2022-12-22T10:51:49.440Z,82.23
2022-12-22T10:54:44.803Z,77.83
2022-12-22T10:57:30.208Z,77.83
2022-12-22T11:00:00.964Z,79.73
2022-12-22T11:02:34.538Z,77.90
2022-12-22T11:05:07.207Z,79.73
2022-12-22T11:07:39.795Z,82.80
2022-12-22T11:10:21.022Z,86.77
2022-12-22T11:13:02.537Z,105.37
2022-12-22T11:15:38.763Z,80.63
2022-12-22T11:18:19.049Z,80.17
2022-12-22T11:21:00.401Z,85.27
2022-12-22T11:23:38.981Z,85.17
2022-12-22T11:26:16.689Z,91.77
2022-12-22T11:28:57.126Z,84.03
2022-12-22T11:31:41.291Z,83.07
2022-12-22T11:34:24.996Z,86.90
2022-12-22T11:37:05.323Z,89.27
2022-12-22T11:39:45.061Z,88.93
2022-12-22T11:42:31.183Z,83.03
2022-12-22T11:45:07.409Z,76.30
2022-12-22T11:47:45.643Z,81.20
2022-12-22T11:51:02.251Z,83.73
2022-12-22T11:53:41.831Z,81.40
2022-12-22T11:56:23.780Z,83.87
2022-12-22T11:59:23.762Z,88.47
2022-12-22T12:02:09.660Z,85.83
2022-12-22T12:05:01.332Z,90.70
2022-12-22T12:07:35.930Z,86.97
2022-12-22T12:10:15.324Z,77.47
2022-12-22T12:12:52.920Z,83.50
2022-12-22T12:15:29.953Z,77.20
2022-12-22T12:18:35.894Z,79.90
2022-12-22T12:21:21.452Z,76.27
2022-12-22T12:24:16.487Z,74.90
2022-12-22T12:26:57.574Z,92.80
2022-12-22T12:29:30.492Z,88.60
2022-12-22T12:32:05.877Z,79.13
2022-12-22T12:34:41.352Z,82.13
2022-12-22T12:37:19.151Z,83.10
2022-12-22T12:40:01.243Z,79.23
2022-12-22T12:42:34.277Z,82.30
2022-12-22T12:45:05.512Z,88.07
2022-12-22T12:47:36.269Z,87.83
2022-12-22T12:50:33.279Z,82.30
2022-12-22T12:53:11.419Z,82.07
2022-12-22T12:56:10.773Z,82.60
2022-12-22T12:58:58.279Z,80.47
2022-12-22T13:02:02.196Z,78.93
2022-12-22T13:05:13.817Z,92.53
2022-12-22T13:08:09.242Z,92.87
2022-12-22T13:10:40.774Z,96.10
2022-12-22T13:13:14.646Z,87.27
2022-12-22T13:15:45.300Z,95.93
2022-12-22T13:18:49.832Z,88.27
2022-12-22T13:24:25.770Z,89.03
2022-12-22T13:26:56.590Z,86.23
2022-12-22T13:29:30.035Z,88.27
2022-12-22T13:32:02.775Z,85.67
2022-12-22T13:35:20.238Z,86.17
2022-12-22T13:37:40.020Z,91.07
2022-12-22T13:40:21.149Z,88.13
2022-12-22T13:42:52.583Z,90.33
2022-12-22T13:45:38.180Z,88.37
2022-12-22T13:48:13.838Z,81.07
2022-12-22T13:50:49.898Z,87.50
2022-12-22T13:56:17.766Z,89.27
2022-12-22T13:58:48.135Z,85.70
2022-12-22T14:01:19.570Z,79.57
2022-12-22T14:04:01.514Z,80.30
2022-12-22T14:06:35.815Z,82.00
2022-12-22T14:09:19.551Z,81.00
2022-12-22T14:11:52.788Z,85.77
2022-12-22T14:14:26.740Z,82.20
2022-12-22T14:16:58.743Z,82.60
2022-12-22T14:19:32.213Z,79.33
2022-12-22T14:22:08.442Z,83.63
2022-12-22T14:24:44.387Z,81.13
2022-12-22T14:27:20.414Z,80.23
2022-12-22T14:29:49.743Z,76.17
2022-12-22T14:32:35.793Z,77.40
2022-12-22T14:35:05.426Z,76.37
2022-12-22T14:37:35.778Z,74.23
2022-12-22T14:40:04.978Z,75.50
2022-12-22T14:42:35.739Z,78.37
2022-12-22T14:45:05.047Z,76.17
2022-12-22T14:47:38.654Z,80.43
2022-12-22T14:50:18.334Z,80.87
2022-12-22T14:52:51.271Z,75.63
2022-12-22T14:55:30.160Z,74.80
2022-12-22T14:58:03.833Z,81.70
2022-12-22T15:00:36.028Z,87.77
2022-12-22T15:03:07.305Z,77.67
2022-12-22T15:05:39.187Z,76.27
2022-12-22T15:08:47.430Z,78.60
2022-12-22T15:11:19.599Z,76.50
2022-12-22T15:13:50.837Z,70.97
2022-12-22T15:16:21.744Z,73.83
2022-12-22T15:18:51.800Z,74.33
2022-12-22T15:21:23.071Z,71.33
2022-12-22T15:23:53.618Z,72.53
2022-12-22T15:26:22.674Z,75.37
2022-12-22T15:28:51.739Z,77.80
2022-12-22T15:31:20.884Z,72.13
2022-12-22T15:33:50.074Z,68.87
2022-12-22T15:36:19.186Z,76.53
2022-12-22T15:38:48.211Z,71.77
2022-12-22T15:41:18.822Z,76.53
2022-12-22T15:44:03.108Z,76.90
2022-12-22T15:46:32.554Z,74.60
2022-12-22T15:49:01.814Z,72.67
2022-12-22T15:51:33.433Z,70.37
2022-12-22T15:54:02.662Z,76.70
2022-12-22T15:56:34.306Z,73.20
2022-12-22T15:59:03.785Z,69.43
2022-12-22T16:01:32.930Z,69.73
2022-12-22T16:04:02.069Z,66.30
2022-12-22T16:06:31.920Z,82.20
2022-12-22T16:09:01.273Z,78.80
2022-12-22T16:11:31.844Z,75.37
2022-12-22T16:14:02.017Z,73.27
2022-12-22T16:16:31.062Z,74.63
2022-12-22T16:19:00.194Z,72.50
2022-12-22T16:21:32.496Z,74.33
2022-12-22T16:24:04.021Z,73.97
2022-12-22T16:26:34.551Z,74.27
2022-12-22T16:29:03.661Z,69.97
2022-12-22T16:31:32.729Z,69.13
2022-12-22T16:34:01.875Z,77.17
2022-12-22T16:36:30.867Z,72.20
2022-12-22T16:38:59.848Z,73.97
2022-12-22T16:41:29.358Z,66.17
2022-12-22T16:46:48.175Z,72.57
2022-12-22T16:49:26.445Z,67.60
2022-12-22T16:51:56.521Z,67.97
2022-12-22T16:54:26.041Z,63.87
2022-12-22T16:56:55.632Z,70.00
2022-12-22T16:59:25.989Z,67.63
2022-12-22T17:01:58.303Z,69.70
2022-12-22T17:04:30.902Z,66.37
2022-12-22T17:07:02.116Z,62.60
2022-12-22T17:09:35.239Z,60.00
2022-12-22T17:12:07.323Z,65.40
2022-12-22T17:14:40.384Z,59.70
2022-12-22T17:17:15.836Z,62.03
2022-12-22T17:19:44.989Z,59.93
2022-12-22T17:22:24.125Z,63.13
2022-12-22T17:24:55.045Z,61.23
2022-12-22T17:27:27.600Z,61.53
2022-12-22T17:29:59.207Z,62.10
2022-12-22T17:32:28.220Z,65.43
2022-12-22T17:34:57.223Z,61.27
2022-12-22T17:37:26.483Z,62.20
2022-12-22T17:40:01.577Z,57.20
2022-12-22T17:42:32.665Z,61.70
2022-12-22T17:45:03.458Z,64.50
2022-12-22T17:47:40.412Z,94.23
2022-12-22T17:50:15.135Z,70.87
2022-12-22T17:52:44.937Z,64.33
2022-12-22T17:56:05.323Z,66.77
2022-12-22T17:58:16.046Z,57.80
2022-12-22T18:00:46.797Z,62.73
2022-12-22T18:03:16.669Z,67.40
2022-12-22T18:05:49.329Z,64.37
2022-12-22T18:08:20.989Z,63.50
2022-12-22T18:10:50.582Z,64.83
2022-12-22T18:13:22.561Z,63.93
2022-12-22T18:15:53.293Z,68.33
2022-12-22T18:18:22.506Z,70.83
2022-12-22T18:21:05.888Z,84.80
2022-12-22T18:23:38.153Z,83.33
2022-12-22T18:26:09.803Z,75.93
2022-12-22T18:28:38.889Z,77.97
2022-12-22T18:31:09.364Z,72.20
2022-12-22T18:33:38.428Z,69.03
2022-12-22T18:36:07.957Z,71.53
2022-12-22T18:38:37.012Z,65.30
2022-12-22T18:41:06.235Z,66.13
2022-12-22T18:43:35.269Z,68.50
2022-12-22T18:46:04.237Z,66.57
2022-12-22T18:48:34.712Z,68.40
2022-12-22T18:51:06.099Z,71.63
2022-12-22T18:53:35.139Z,82.40
2022-12-22T18:56:04.073Z,81.53
2022-12-22T18:58:33.153Z,86.93
2022-12-22T19:01:04.043Z,80.70
2022-12-22T19:03:34.795Z,92.33
2022-12-22T19:06:03.958Z,86.47
2022-12-22T19:08:33.031Z,107.93
2022-12-22T19:11:05.469Z,119.00
2022-12-22T19:13:36.889Z,131.17
2022-12-22T19:16:07.315Z,134.40
2022-12-22T19:18:37.725Z,119.40
2022-12-22T19:21:07.334Z,111.13
2022-12-22T19:23:36.374Z,110.60
2022-12-22T19:26:09.177Z,109.47
2022-12-22T19:28:41.268Z,97.83
2022-12-22T19:31:17.003Z,95.13
2022-12-22T19:33:47.745Z,85.60
2022-12-22T19:36:19.529Z,80.73
2022-12-22T19:38:51.040Z,77.23
2022-12-22T19:41:34.235Z,79.23
2022-12-22T19:44:03.429Z,72.53
2022-12-22T19:46:35.679Z,72.07
2022-12-22T19:49:06.284Z,73.10
2022-12-22T19:51:35.286Z,62.40
2022-12-22T19:54:04.489Z,69.77
2022-12-22T19:56:33.788Z,66.00
2022-12-22T19:59:04.870Z,66.70
2022-12-22T20:01:34.475Z,64.80
2022-12-22T20:04:05.164Z,66.93
2022-12-22T20:06:34.262Z,61.00
2022-12-22T20:09:03.433Z,58.60
2022-12-22T20:11:35.815Z,60.73
2022-12-22T20:14:05.085Z,54.80
2022-12-22T20:16:34.232Z,58.93
2022-12-22T20:19:03.371Z,54.27
2022-12-22T20:21:33.782Z,55.00
2022-12-22T20:24:03.238Z,52.40
2022-12-22T20:26:32.628Z,53.07
2022-12-22T20:29:01.905Z,48.40
2022-12-22T20:31:30.941Z,57.83
2022-12-22T20:34:01.408Z,57.93
2022-12-22T20:36:35.222Z,53.20
2022-12-22T20:39:07.400Z,57.80
2022-12-22T20:41:36.369Z,51.23
2022-12-22T20:44:05.364Z,52.80
2022-12-22T20:46:34.463Z,47.43
2022-12-22T20:49:05.963Z,49.00
2022-12-22T20:51:36.336Z,45.47
2022-12-22T20:54:05.938Z,46.30
2022-12-22T20:56:37.740Z,51.33
2022-12-22T20:59:15.390Z,48.47
2022-12-22T21:01:44.524Z,48.13
2022-12-22T21:04:14.871Z,54.53
2022-12-22T21:06:49.785Z,47.67
2022-12-22T21:09:18.817Z,64.10
2022-12-22T21:11:48.097Z,57.80
2022-12-22T21:14:17.524Z,59.43
2022-12-22T21:16:46.627Z,62.13
2022-12-22T21:19:18.924Z,72.20
2022-12-22T21:21:49.491Z,64.37
2022-12-22T21:24:18.869Z,64.17
2022-12-22T21:26:50.364Z,68.87
2022-12-22T21:29:21.955Z,60.63
2022-12-22T21:31:51.017Z,58.40
2022-12-22T21:34:20.838Z,56.53
2022-12-22T21:36:56.716Z,56.47
2022-12-22T21:39:32.574Z,60.40
2022-12-22T21:42:01.743Z,56.27
2022-12-22T21:44:32.184Z,64.57
2022-12-22T21:47:01.623Z,55.93
2022-12-22T21:49:32.395Z,57.37
2022-12-22T21:52:03.017Z,53.80
2022-12-22T21:54:32.187Z,51.33
2022-12-22T21:57:01.215Z,68.07
2022-12-22T21:59:31.421Z,73.63
2022-12-22T22:02:00.652Z,63.00
2022-12-22T22:04:29.787Z,53.53
2022-12-22T22:07:03.413Z,51.33
2022-12-22T22:09:32.502Z,50.87
2022-12-22T22:12:22.039Z,54.37
2022-12-22T22:14:55.465Z,47.73
2022-12-22T22:17:24.717Z,45.80
2022-12-22T22:19:53.724Z,44.60
2022-12-22T22:22:24.099Z,42.37
2022-12-22T22:24:53.044Z,44.47
2022-12-22T22:27:21.972Z,41.27
2022-12-22T22:29:51.051Z,39.00
2022-12-22T22:32:20.377Z,40.10
2022-12-22T22:34:49.514Z,42.27
2022-12-22T22:37:18.516Z,40.80
2022-12-22T22:39:53.687Z,45.10
2022-12-22T22:42:22.776Z,48.93
2022-12-22T22:44:51.757Z,47.87
2022-12-22T22:47:20.707Z,47.50
2022-12-22T22:49:49.721Z,50.53
2022-12-22T22:52:18.758Z,53.23
2022-12-22T22:54:49.152Z,53.70
2022-12-22T22:57:18.307Z,54.20
2022-12-22T22:59:47.315Z,55.70
2022-12-22T23:02:17.317Z,75.47
2022-12-22T23:04:46.654Z,74.53
2022-12-22T23:07:15.726Z,83.47
2022-12-22T23:09:44.807Z,76.13
2022-12-22T23:12:15.147Z,66.10
2022-12-22T23:14:44.222Z,77.67
2022-12-22T23:17:13.223Z,68.43
2022-12-22T23:19:42.276Z,73.00
2022-12-22T23:22:11.307Z,72.63
2022-12-22T23:24:40.345Z,73.03
2022-12-22T23:27:09.446Z,74.20
2022-12-22T23:29:40.212Z,65.83
2022-12-22T23:32:09.277Z,61.60
2022-12-22T23:34:38.268Z,69.10
2022-12-22T23:37:07.258Z,58.43
2022-12-22T23:39:36.542Z,58.07
2022-12-22T23:42:05.718Z,58.67
2022-12-22T23:44:34.939Z,51.60
2022-12-22T23:47:05.528Z,57.27
2022-12-22T23:49:34.678Z,61.20
2022-12-22T23:52:03.641Z,55.13
2022-12-22T23:54:32.636Z,53.00
2022-12-22T23:57:01.757Z,55.43
2022-12-22T23:59:31.705Z,51.40
